sensor_id;sensor_type;location;lat;lon;timestamp;temperature;humidity
18043;DHT22;9146;48.074;11.968;2022-09-03T00:00:02;12.20;99.90
18043;DHT22;9146;48.074;11.968;2022-09-03T00:02:35;12.20;99.90
18043;DHT22;9146;48.074;11.968;2022-09-03T00:05:07;12.30;99.90
18043;DHT22;9146;48.074;11.968;2022-09-03T00:07:41;12.30;99.90
18043;DHT22;9146;48.074;11.968;2022-09-03T00:10:14;12.20;99.90
18043;DHT22;9146;48.074;11.968;2022-09-03T00:12:47;12.20;99.90
18043;DHT22;9146;48.074;11.968;2022-09-03T00:15:17;12.20;99.90
18043;DHT22;9146;48.074;11.968;2022-09-03T00:17:49;12.20;99.90
18043;DHT22;9146;48.074;11.968;2022-09-03T00:20:20;12.20;99.90
18043;DHT22;9146;48.074;11.968;2022-09-03T00:22:50;12.10;99.90
18043;DHT22;9146;48.074;11.968;2022-09-03T00:25:21;12.10;99.90
18043;DHT22;9146;48.074;11.968;2022-09-03T00:27:52;12.00;99.90
18043;DHT22;9146;48.074;11.968;2022-09-03T00:30:22;12.00;99.90
18043;DHT22;9146;48.074;11.968;2022-09-03T00:32:55;12.00;99.90
18043;DHT22;9146;48.074;11.968;2022-09-03T00:35:27;11.90;99.90
18043;DHT22;9146;48.074;11.968;2022-09-03T00:37:56;11.90;99.90
18043;DHT22;9146;48.074;11.968;2022-09-03T00:40:46;11.90;99.90
18043;DHT22;9146;48.074;11.968;2022-09-03T00:43:29;11.80;99.90
18043;DHT22;9146;48.074;11.968;2022-09-03T00:46:07;11.80;99.90
18043;DHT22;9146;48.074;11.968;2022-09-03T00:48:52;11.80;99.90
18043;DHT22;9146;48.074;11.968;2022-09-03T00:51:28;11.80;99.90
18043;DHT22;9146;48.074;11.968;2022-09-03T00:54:06;11.90;99.90
18043;DHT22;9146;48.074;11.968;2022-09-03T00:56:39;11.90;99.90
18043;DHT22;9146;48.074;11.968;2022-09-03T00:59:21;11.80;99.90
18043;DHT22;9146;48.074;11.968;2022-09-03T01:02:02;11.80;99.90
18043;DHT22;9146;48.074;11.968;2022-09-03T01:04:40;11.80;99.90
18043;DHT22;9146;48.074;11.968;2022-09-03T01:07:18;11.80;99.90
18043;DHT22;9146;48.074;11.968;2022-09-03T01:09:55;11.80;99.90
18043;DHT22;9146;48.074;11.968;2022-09-03T01:12:33;11.80;99.90
18043;DHT22;9146;48.074;11.968;2022-09-03T01:15:09;11.80;99.90
18043;DHT22;9146;48.074;11.968;2022-09-03T01:17:55;11.80;99.90
18043;DHT22;9146;48.074;11.968;2022-09-03T01:20:36;11.80;99.90
18043;DHT22;9146;48.074;11.968;2022-09-03T01:23:35;11.80;99.90
18043;DHT22;9146;48.074;11.968;2022-09-03T01:26:21;11.80;99.90
18043;DHT22;9146;48.074;11.968;2022-09-03T01:29:02;11.80;99.90
18043;DHT22;9146;48.074;11.968;2022-09-03T01:31:36;11.80;99.90
18043;DHT22;9146;48.074;11.968;2022-09-03T01:34:15;11.70;99.90
18043;DHT22;9146;48.074;11.968;2022-09-03T01:36:51;11.70;99.90
18043;DHT22;9146;48.074;11.968;2022-09-03T01:39:28;11.70;99.90
18043;DHT22;9146;48.074;11.968;2022-09-03T01:42:05;11.60;99.90
18043;DHT22;9146;48.074;11.968;2022-09-03T01:47:51;11.50;99.90
18043;DHT22;9146;48.074;11.968;2022-09-03T01:50:32;11.50;99.90
18043;DHT22;9146;48.074;11.968;2022-09-03T01:53:06;11.40;99.90
18043;DHT22;9146;48.074;11.968;2022-09-03T01:55:46;11.40;99.90
18043;DHT22;9146;48.074;11.968;2022-09-03T01:58:25;11.40;99.90
18043;DHT22;9146;48.074;11.968;2022-09-03T02:01:00;11.40;99.90
18043;DHT22;9146;48.074;11.968;2022-09-03T02:03:34;11.50;99.90
18043;DHT22;9146;48.074;11.968;2022-09-03T02:06:03;11.50;99.90
18043;DHT22;9146;48.074;11.968;2022-09-03T02:08:32;11.60;99.90
18043;DHT22;9146;48.074;11.968;2022-09-03T02:10:59;11.70;99.90
18043;DHT22;9146;48.074;11.968;2022-09-03T02:13:31;11.70;99.90
18043;DHT22;9146;48.074;11.968;2022-09-03T02:16:02;11.80;99.90
18043;DHT22;9146;48.074;11.968;2022-09-03T02:18:35;11.80;99.90
18043;DHT22;9146;48.074;11.968;2022-09-03T02:21:03;11.80;99.90
18043;DHT22;9146;48.074;11.968;2022-09-03T02:23:30;11.80;99.90
18043;DHT22;9146;48.074;11.968;2022-09-03T02:26:01;11.90;99.90
18043;DHT22;9146;48.074;11.968;2022-09-03T02:28:30;11.80;99.90
18043;DHT22;9146;48.074;11.968;2022-09-03T02:30:57;11.90;99.90
18043;DHT22;9146;48.074;11.968;2022-09-03T02:33:26;11.90;99.90
18043;DHT22;9146;48.074;11.968;2022-09-03T02:35:53;11.90;99.90
18043;DHT22;9146;48.074;11.968;2022-09-03T02:38:22;11.90;99.90
18043;DHT22;9146;48.074;11.968;2022-09-03T02:40:50;11.90;99.90
18043;DHT22;9146;48.074;11.968;2022-09-03T02:43:22;11.80;99.90
18043;DHT22;9146;48.074;11.968;2022-09-03T02:45:54;11.80;99.90
18043;DHT22;9146;48.074;11.968;2022-09-03T02:48:23;11.80;99.90
18043;DHT22;9146;48.074;11.968;2022-09-03T02:50:51;11.80;99.90
18043;DHT22;9146;48.074;11.968;2022-09-03T02:53:19;11.80;99.90
18043;DHT22;9146;48.074;11.968;2022-09-03T02:55:46;11.80;99.90
18043;DHT22;9146;48.074;11.968;2022-09-03T02:58:13;11.80;99.90
18043;DHT22;9146;48.074;11.968;2022-09-03T03:00:40;11.80;99.90
18043;DHT22;9146;48.074;11.968;2022-09-03T03:03:07;11.70;99.90
18043;DHT22;9146;48.074;11.968;2022-09-03T03:05:41;11.70;99.90
18043;DHT22;9146;48.074;11.968;2022-09-03T03:08:11;11.70;99.90
18043;DHT22;9146;48.074;11.968;2022-09-03T03:10:39;11.60;99.90
18043;DHT22;9146;48.074;11.968;2022-09-03T03:13:06;11.60;99.90
18043;DHT22;9146;48.074;11.968;2022-09-03T03:15:33;11.50;99.90
18043;DHT22;9146;48.074;11.968;2022-09-03T03:18:00;11.50;99.90
18043;DHT22;9146;48.074;11.968;2022-09-03T03:20:27;11.40;99.90
18043;DHT22;9146;48.074;11.968;2022-09-03T03:22:55;11.30;99.90
18043;DHT22;9146;48.074;11.968;2022-09-03T03:25:23;11.30;99.90
18043;DHT22;9146;48.074;11.968;2022-09-03T03:27:50;11.20;99.90
18043;DHT22;9146;48.074;11.968;2022-09-03T03:30:17;11.20;99.90
18043;DHT22;9146;48.074;11.968;2022-09-03T03:32:45;11.10;99.90
18043;DHT22;9146;48.074;11.968;2022-09-03T03:35:12;11.10;99.90
18043;DHT22;9146;48.074;11.968;2022-09-03T03:37:39;11.00;99.90
18043;DHT22;9146;48.074;11.968;2022-09-03T03:40:07;11.00;99.90
18043;DHT22;9146;48.074;11.968;2022-09-03T03:42:35;11.00;99.90
18043;DHT22;9146;48.074;11.968;2022-09-03T03:45:03;10.90;99.90
18043;DHT22;9146;48.074;11.968;2022-09-03T03:47:30;10.90;99.90
18043;DHT22;9146;48.074;11.968;2022-09-03T03:49:58;10.90;99.90
18043;DHT22;9146;48.074;11.968;2022-09-03T03:52:26;10.80;99.90
18043;DHT22;9146;48.074;11.968;2022-09-03T03:54:53;10.80;99.90
18043;DHT22;9146;48.074;11.968;2022-09-03T03:57:21;10.70;99.90
18043;DHT22;9146;48.074;11.968;2022-09-03T03:59:50;10.70;99.90
18043;DHT22;9146;48.074;11.968;2022-09-03T04:02:17;10.70;99.90
18043;DHT22;9146;48.074;11.968;2022-09-03T04:04:44;10.60;99.90
18043;DHT22;9146;48.074;11.968;2022-09-03T04:07:11;10.60;99.90
18043;DHT22;9146;48.074;11.968;2022-09-03T04:09:38;10.50;99.90
18043;DHT22;9146;48.074;11.968;2022-09-03T04:12:05;10.50;99.90
18043;DHT22;9146;48.074;11.968;2022-09-03T04:14:33;10.50;99.90
18043;DHT22;9146;48.074;11.968;2022-09-03T04:17:02;10.50;99.90
18043;DHT22;9146;48.074;11.968;2022-09-03T04:19:29;10.40;99.90
18043;DHT22;9146;48.074;11.968;2022-09-03T04:21:56;10.40;99.90
18043;DHT22;9146;48.074;11.968;2022-09-03T04:24:23;10.40;99.90
18043;DHT22;9146;48.074;11.968;2022-09-03T04:26:50;10.40;99.90
18043;DHT22;9146;48.074;11.968;2022-09-03T04:29:18;10.40;99.90
18043;DHT22;9146;48.074;11.968;2022-09-03T04:31:46;10.30;99.90
18043;DHT22;9146;48.074;11.968;2022-09-03T04:34:28;10.30;99.90
18043;DHT22;9146;48.074;11.968;2022-09-03T04:36:55;10.30;99.90
18043;DHT22;9146;48.074;11.968;2022-09-03T04:39:23;10.30;99.90
18043;DHT22;9146;48.074;11.968;2022-09-03T04:41:50;10.30;99.90
18043;DHT22;9146;48.074;11.968;2022-09-03T04:44:17;10.30;99.90
18043;DHT22;9146;48.074;11.968;2022-09-03T04:46:44;10.30;99.90
18043;DHT22;9146;48.074;11.968;2022-09-03T04:49:12;10.30;99.90
18043;DHT22;9146;48.074;11.968;2022-09-03T04:51:41;10.30;99.90
18043;DHT22;9146;48.074;11.968;2022-09-03T04:54:09;10.30;99.90
18043;DHT22;9146;48.074;11.968;2022-09-03T04:56:38;10.30;99.90
18043;DHT22;9146;48.074;11.968;2022-09-03T04:59:06;10.30;99.90
18043;DHT22;9146;48.074;11.968;2022-09-03T05:01:35;10.30;99.90
18043;DHT22;9146;48.074;11.968;2022-09-03T05:04:03;10.40;99.90
18043;DHT22;9146;48.074;11.968;2022-09-03T05:06:31;10.40;99.90
18043;DHT22;9146;48.074;11.968;2022-09-03T05:09:00;10.50;99.90
18043;DHT22;9146;48.074;11.968;2022-09-03T05:11:28;10.60;99.90
18043;DHT22;9146;48.074;11.968;2022-09-03T05:13:57;10.70;99.90
18043;DHT22;9146;48.074;11.968;2022-09-03T05:16:25;10.80;99.90
18043;DHT22;9146;48.074;11.968;2022-09-03T05:18:55;10.90;99.90
18043;DHT22;9146;48.074;11.968;2022-09-03T05:21:24;11.00;99.90
18043;DHT22;9146;48.074;11.968;2022-09-03T05:23:51;11.10;99.90
18043;DHT22;9146;48.074;11.968;2022-09-03T05:26:21;11.20;99.90
18043;DHT22;9146;48.074;11.968;2022-09-03T05:28:52;11.30;99.90
18043;DHT22;9146;48.074;11.968;2022-09-03T05:31:20;11.40;99.90
18043;DHT22;9146;48.074;11.968;2022-09-03T05:33:48;11.50;99.90
18043;DHT22;9146;48.074;11.968;2022-09-03T05:36:17;11.60;99.90
18043;DHT22;9146;48.074;11.968;2022-09-03T05:38:45;11.70;99.90
18043;DHT22;9146;48.074;11.968;2022-09-03T05:41:14;11.80;99.90
18043;DHT22;9146;48.074;11.968;2022-09-03T05:43:43;12.00;99.90
18043;DHT22;9146;48.074;11.968;2022-09-03T05:46:12;12.10;99.90
18043;DHT22;9146;48.074;11.968;2022-09-03T05:48:41;12.20;99.90
18043;DHT22;9146;48.074;11.968;2022-09-03T05:51:10;12.40;99.90
18043;DHT22;9146;48.074;11.968;2022-09-03T05:53:41;12.50;99.90
18043;DHT22;9146;48.074;11.968;2022-09-03T05:56:09;12.70;99.90
18043;DHT22;9146;48.074;11.968;2022-09-03T05:58:38;12.90;99.90
18043;DHT22;9146;48.074;11.968;2022-09-03T06:01:13;13.00;99.90
18043;DHT22;9146;48.074;11.968;2022-09-03T06:03:41;13.20;99.90
18043;DHT22;9146;48.074;11.968;2022-09-03T06:06:09;13.30;99.90
18043;DHT22;9146;48.074;11.968;2022-09-03T06:08:38;13.40;99.90
18043;DHT22;9146;48.074;11.968;2022-09-03T06:11:06;13.50;99.90
18043;DHT22;9146;48.074;11.968;2022-09-03T06:13:34;13.60;99.90
18043;DHT22;9146;48.074;11.968;2022-09-03T06:16:02;13.70;99.90
18043;DHT22;9146;48.074;11.968;2022-09-03T06:18:31;13.80;99.90
18043;DHT22;9146;48.074;11.968;2022-09-03T06:20:59;13.90;99.90
18043;DHT22;9146;48.074;11.968;2022-09-03T06:23:28;14.00;99.90
18043;DHT22;9146;48.074;11.968;2022-09-03T06:26:02;14.10;99.90
18043;DHT22;9146;48.074;11.968;2022-09-03T06:28:30;14.10;99.90
18043;DHT22;9146;48.074;11.968;2022-09-03T06:30:59;14.10;99.90
18043;DHT22;9146;48.074;11.968;2022-09-03T06:33:27;14.10;99.90
18043;DHT22;9146;48.074;11.968;2022-09-03T06:35:57;14.20;99.90
18043;DHT22;9146;48.074;11.968;2022-09-03T06:38:25;14.30;99.90
18043;DHT22;9146;48.074;11.968;2022-09-03T06:40:54;14.50;99.90
18043;DHT22;9146;48.074;11.968;2022-09-03T06:43:23;14.70;99.90
18043;DHT22;9146;48.074;11.968;2022-09-03T06:45:55;14.90;99.90
18043;DHT22;9146;48.074;11.968;2022-09-03T06:48:22;15.10;99.90
18043;DHT22;9146;48.074;11.968;2022-09-03T06:50:54;15.40;99.90
18043;DHT22;9146;48.074;11.968;2022-09-03T06:53:24;15.60;99.90
18043;DHT22;9146;48.074;11.968;2022-09-03T06:55:53;15.80;99.90
18043;DHT22;9146;48.074;11.968;2022-09-03T06:58:20;15.80;99.90
18043;DHT22;9146;48.074;11.968;2022-09-03T07:00:47;15.90;99.90
18043;DHT22;9146;48.074;11.968;2022-09-03T07:03:16;15.90;99.90
18043;DHT22;9146;48.074;11.968;2022-09-03T07:05:43;16.00;99.90
18043;DHT22;9146;48.074;11.968;2022-09-03T07:08:10;16.10;99.90
18043;DHT22;9146;48.074;11.968;2022-09-03T07:10:39;16.30;99.90
18043;DHT22;9146;48.074;11.968;2022-09-03T07:13:07;16.40;99.90
18043;DHT22;9146;48.074;11.968;2022-09-03T07:15:34;16.60;99.90
18043;DHT22;9146;48.074;11.968;2022-09-03T07:18:01;16.80;99.90
18043;DHT22;9146;48.074;11.968;2022-09-03T07:20:28;16.90;99.90
18043;DHT22;9146;48.074;11.968;2022-09-03T07:22:55;17.00;99.90
18043;DHT22;9146;48.074;11.968;2022-09-03T07:25:23;17.10;99.90
18043;DHT22;9146;48.074;11.968;2022-09-03T07:27:52;17.10;99.90
18043;DHT22;9146;48.074;11.968;2022-09-03T07:30:19;17.10;99.90
18043;DHT22;9146;48.074;11.968;2022-09-03T07:32:46;17.20;99.90
18043;DHT22;9146;48.074;11.968;2022-09-03T07:35:15;17.40;99.90
18043;DHT22;9146;48.074;11.968;2022-09-03T07:37:43;17.60;99.90
18043;DHT22;9146;48.074;11.968;2022-09-03T07:40:13;17.80;99.90
18043;DHT22;9146;48.074;11.968;2022-09-03T07:42:44;18.00;99.90
18043;DHT22;9146;48.074;11.968;2022-09-03T07:45:14;18.30;99.90
18043;DHT22;9146;48.074;11.968;2022-09-03T07:47:47;18.50;99.90
18043;DHT22;9146;48.074;11.968;2022-09-03T07:50:14;18.60;99.90
18043;DHT22;9146;48.074;11.968;2022-09-03T07:52:42;18.70;99.90
18043;DHT22;9146;48.074;11.968;2022-09-03T07:55:09;18.70;99.90
18043;DHT22;9146;48.074;11.968;2022-09-03T07:57:36;18.80;99.90
18043;DHT22;9146;48.074;11.968;2022-09-03T08:00:03;19.00;99.90
18043;DHT22;9146;48.074;11.968;2022-09-03T08:02:33;19.10;99.90
18043;DHT22;9146;48.074;11.968;2022-09-03T08:05:00;19.20;99.90
18043;DHT22;9146;48.074;11.968;2022-09-03T08:07:28;19.40;99.90
18043;DHT22;9146;48.074;11.968;2022-09-03T08:09:56;19.50;99.90
18043;DHT22;9146;48.074;11.968;2022-09-03T08:12:23;19.60;99.90
18043;DHT22;9146;48.074;11.968;2022-09-03T08:14:50;19.70;99.90
18043;DHT22;9146;48.074;11.968;2022-09-03T08:17:17;19.80;99.90
18043;DHT22;9146;48.074;11.968;2022-09-03T08:19:45;19.90;99.90
18043;DHT22;9146;48.074;11.968;2022-09-03T08:22:12;20.10;99.90
18043;DHT22;9146;48.074;11.968;2022-09-03T08:24:39;20.00;99.90
18043;DHT22;9146;48.074;11.968;2022-09-03T08:27:07;20.00;99.90
18043;DHT22;9146;48.074;11.968;2022-09-03T08:29:34;20.00;99.90
18043;DHT22;9146;48.074;11.968;2022-09-03T08:32:03;19.80;99.90
18043;DHT22;9146;48.074;11.968;2022-09-03T08:34:30;19.80;99.90
18043;DHT22;9146;48.074;11.968;2022-09-03T08:36:58;19.80;99.90
18043;DHT22;9146;48.074;11.968;2022-09-03T08:39:26;19.90;99.90
18043;DHT22;9146;48.074;11.968;2022-09-03T08:42:06;20.00;99.90
18043;DHT22;9146;48.074;11.968;2022-09-03T08:44:42;20.10;99.90
18043;DHT22;9146;48.074;11.968;2022-09-03T08:47:14;20.30;99.90
18043;DHT22;9146;48.074;11.968;2022-09-03T08:49:45;20.60;99.90
18043;DHT22;9146;48.074;11.968;2022-09-03T08:52:25;20.80;99.90
18043;DHT22;9146;48.074;11.968;2022-09-03T08:54:59;20.90;99.90
18043;DHT22;9146;48.074;11.968;2022-09-03T08:57:32;20.90;99.90
18043;DHT22;9146;48.074;11.968;2022-09-03T09:00:03;21.00;99.90
18043;DHT22;9146;48.074;11.968;2022-09-03T09:02:37;21.00;99.90
18043;DHT22;9146;48.074;11.968;2022-09-03T09:05:11;21.00;99.90
18043;DHT22;9146;48.074;11.968;2022-09-03T09:07:44;21.00;99.90
18043;DHT22;9146;48.074;11.968;2022-09-03T09:10:17;21.10;99.90
18043;DHT22;9146;48.074;11.968;2022-09-03T09:12:50;21.20;99.90
18043;DHT22;9146;48.074;11.968;2022-09-03T09:15:29;21.40;99.90
18043;DHT22;9146;48.074;11.968;2022-09-03T09:18:08;21.40;99.90
18043;DHT22;9146;48.074;11.968;2022-09-03T09:20:41;21.50;99.90
18043;DHT22;9146;48.074;11.968;2022-09-03T09:23:13;21.60;99.90
18043;DHT22;9146;48.074;11.968;2022-09-03T09:25:46;21.60;99.90
18043;DHT22;9146;48.074;11.968;2022-09-03T09:28:17;21.60;99.90
18043;DHT22;9146;48.074;11.968;2022-09-03T09:30:45;21.50;99.90
18043;DHT22;9146;48.074;11.968;2022-09-03T09:33:12;21.40;99.90
18043;DHT22;9146;48.074;11.968;2022-09-03T09:35:40;21.40;99.90
18043;DHT22;9146;48.074;11.968;2022-09-03T09:38:08;21.40;99.90
18043;DHT22;9146;48.074;11.968;2022-09-03T09:40:39;21.30;99.90
18043;DHT22;9146;48.074;11.968;2022-09-03T09:43:10;21.20;99.90
18043;DHT22;9146;48.074;11.968;2022-09-03T09:45:39;21.10;99.90
18043;DHT22;9146;48.074;11.968;2022-09-03T09:48:12;21.10;99.90
18043;DHT22;9146;48.074;11.968;2022-09-03T09:50:41;21.10;99.90
18043;DHT22;9146;48.074;11.968;2022-09-03T09:53:10;21.30;99.90
18043;DHT22;9146;48.074;11.968;2022-09-03T09:55:53;21.40;99.90
18043;DHT22;9146;48.074;11.968;2022-09-03T09:58:21;21.50;99.90
18043;DHT22;9146;48.074;11.968;2022-09-03T10:00:56;21.50;99.90
18043;DHT22;9146;48.074;11.968;2022-09-03T10:03:25;21.50;99.90
18043;DHT22;9146;48.074;11.968;2022-09-03T10:06:02;21.60;99.90
18043;DHT22;9146;48.074;11.968;2022-09-03T10:08:48;21.60;99.90
18043;DHT22;9146;48.074;11.968;2022-09-03T10:11:17;21.70;99.90
18043;DHT22;9146;48.074;11.968;2022-09-03T10:13:47;21.90;99.90
18043;DHT22;9146;48.074;11.968;2022-09-03T10:16:21;22.20;99.90
18043;DHT22;9146;48.074;11.968;2022-09-03T10:18:59;22.40;99.90
18043;DHT22;9146;48.074;11.968;2022-09-03T10:21:31;22.50;99.90
18043;DHT22;9146;48.074;11.968;2022-09-03T10:24:14;22.60;99.90
18043;DHT22;9146;48.074;11.968;2022-09-03T10:26:46;22.90;99.90
18043;DHT22;9146;48.074;11.968;2022-09-03T10:29:17;23.20;99.90
18043;DHT22;9146;48.074;11.968;2022-09-03T10:32:02;23.40;99.90
18043;DHT22;9146;48.074;11.968;2022-09-03T10:34:37;23.60;99.90
18043;DHT22;9146;48.074;11.968;2022-09-03T10:37:15;23.70;99.90
18043;DHT22;9146;48.074;11.968;2022-09-03T10:39:55;23.90;99.90
18043;DHT22;9146;48.074;11.968;2022-09-03T10:42:42;24.00;99.90
18043;DHT22;9146;48.074;11.968;2022-09-03T10:45:25;23.90;99.90
18043;DHT22;9146;48.074;11.968;2022-09-03T10:48:14;23.80;99.90
18043;DHT22;9146;48.074;11.968;2022-09-03T10:50:47;23.70;99.90
18043;DHT22;9146;48.074;11.968;2022-09-03T10:53:31;23.60;99.90
18043;DHT22;9146;48.074;11.968;2022-09-03T10:56:04;23.60;99.90
18043;DHT22;9146;48.074;11.968;2022-09-03T10:58:55;23.50;99.90
18043;DHT22;9146;48.074;11.968;2022-09-03T11:01:33;23.50;99.90
18043;DHT22;9146;48.074;11.968;2022-09-03T11:04:17;23.60;99.90
18043;DHT22;9146;48.074;11.968;2022-09-03T11:06:50;23.70;99.90
18043;DHT22;9146;48.074;11.968;2022-09-03T11:09:22;23.90;99.90
18043;DHT22;9146;48.074;11.968;2022-09-03T11:11:54;24.10;99.90
18043;DHT22;9146;48.074;11.968;2022-09-03T11:14:31;24.10;99.90
18043;DHT22;9146;48.074;11.968;2022-09-03T11:17:03;24.10;99.90
18043;DHT22;9146;48.074;11.968;2022-09-03T11:19:34;24.00;99.90
18043;DHT22;9146;48.074;11.968;2022-09-03T11:22:03;23.90;99.90
18043;DHT22;9146;48.074;11.968;2022-09-03T11:24:32;23.70;99.90
18043;DHT22;9146;48.074;11.968;2022-09-03T11:27:04;23.80;99.90
18043;DHT22;9146;48.074;11.968;2022-09-03T11:29:47;23.70;99.90
18043;DHT22;9146;48.074;11.968;2022-09-03T11:32:17;23.80;99.90
18043;DHT22;9146;48.074;11.968;2022-09-03T11:34:47;23.80;99.90
18043;DHT22;9146;48.074;11.968;2022-09-03T11:37:21;23.90;99.90
18043;DHT22;9146;48.074;11.968;2022-09-03T11:40:02;23.90;99.90
18043;DHT22;9146;48.074;11.968;2022-09-03T11:42:33;23.80;99.90
18043;DHT22;9146;48.074;11.968;2022-09-03T11:45:23;23.90;99.90
18043;DHT22;9146;48.074;11.968;2022-09-03T11:47:50;23.80;99.90
18043;DHT22;9146;48.074;11.968;2022-09-03T11:50:22;23.60;99.90
18043;DHT22;9146;48.074;11.968;2022-09-03T11:52:50;23.40;99.90
18043;DHT22;9146;48.074;11.968;2022-09-03T11:55:29;23.30;99.90
18043;DHT22;9146;48.074;11.968;2022-09-03T11:58:09;23.20;99.90
18043;DHT22;9146;48.074;11.968;2022-09-03T12:00:38;23.20;99.90
18043;DHT22;9146;48.074;11.968;2022-09-03T12:03:12;23.30;99.90
18043;DHT22;9146;48.074;11.968;2022-09-03T12:05:46;23.50;99.90
18043;DHT22;9146;48.074;11.968;2022-09-03T12:11:38;23.90;99.90
18043;DHT22;9146;48.074;11.968;2022-09-03T12:14:13;24.00;99.90
18043;DHT22;9146;48.074;11.968;2022-09-03T12:17:10;24.20;99.90
18043;DHT22;9146;48.074;11.968;2022-09-03T12:19:41;24.30;99.90
18043;DHT22;9146;48.074;11.968;2022-09-03T12:22:14;24.30;99.90
18043;DHT22;9146;48.074;11.968;2022-09-03T12:24:41;24.30;99.90
18043;DHT22;9146;48.074;11.968;2022-09-03T12:27:11;24.40;99.90
18043;DHT22;9146;48.074;11.968;2022-09-03T12:29:49;24.40;99.90
18043;DHT22;9146;48.074;11.968;2022-09-03T12:32:24;24.60;99.90
18043;DHT22;9146;48.074;11.968;2022-09-03T12:34:52;24.80;99.90
18043;DHT22;9146;48.074;11.968;2022-09-03T12:37:21;25.00;99.90
18043;DHT22;9146;48.074;11.968;2022-09-03T12:39:50;24.90;99.90
18043;DHT22;9146;48.074;11.968;2022-09-03T12:42:22;24.90;99.90
18043;DHT22;9146;48.074;11.968;2022-09-03T12:44:49;24.70;99.90
18043;DHT22;9146;48.074;11.968;2022-09-03T12:47:19;24.50;99.90
18043;DHT22;9146;48.074;11.968;2022-09-03T12:49:49;24.30;99.90
18043;DHT22;9146;48.074;11.968;2022-09-03T12:52:19;24.10;99.90
18043;DHT22;9146;48.074;11.968;2022-09-03T12:54:50;23.80;99.90
18043;DHT22;9146;48.074;11.968;2022-09-03T12:57:21;23.60;99.90
18043;DHT22;9146;48.074;11.968;2022-09-03T12:59:53;23.50;99.90
18043;DHT22;9146;48.074;11.968;2022-09-03T13:02:26;23.40;99.90
18043;DHT22;9146;48.074;11.968;2022-09-03T13:04:55;23.30;99.90
18043;DHT22;9146;48.074;11.968;2022-09-03T13:07:27;23.30;99.90
18043;DHT22;9146;48.074;11.968;2022-09-03T13:10:01;23.30;99.90
18043;DHT22;9146;48.074;11.968;2022-09-03T13:12:31;23.30;99.90
18043;DHT22;9146;48.074;11.968;2022-09-03T13:15:06;23.30;99.90
18043;DHT22;9146;48.074;11.968;2022-09-03T13:18:02;23.30;99.90
18043;DHT22;9146;48.074;11.968;2022-09-03T13:20:45;23.50;99.90
18043;DHT22;9146;48.074;11.968;2022-09-03T13:23:35;23.50;99.90
18043;DHT22;9146;48.074;11.968;2022-09-03T13:26:17;23.60;99.90
18043;DHT22;9146;48.074;11.968;2022-09-03T13:29:03;23.60;99.90
18043;DHT22;9146;48.074;11.968;2022-09-03T13:31:39;23.60;99.90
18043;DHT22;9146;48.074;11.968;2022-09-03T13:34:14;23.60;99.90
18043;DHT22;9146;48.074;11.968;2022-09-03T13:36:47;23.50;99.90
18043;DHT22;9146;48.074;11.968;2022-09-03T13:39:20;23.50;99.90
18043;DHT22;9146;48.074;11.968;2022-09-03T13:41:56;23.50;99.90
18043;DHT22;9146;48.074;11.968;2022-09-03T13:44:36;23.40;99.90
18043;DHT22;9146;48.074;11.968;2022-09-03T13:47:11;23.50;99.90
18043;DHT22;9146;48.074;11.968;2022-09-03T13:49:46;23.50;99.90
18043;DHT22;9146;48.074;11.968;2022-09-03T13:52:39;23.60;99.90
18043;DHT22;9146;48.074;11.968;2022-09-03T13:55:11;23.90;99.90
18043;DHT22;9146;48.074;11.968;2022-09-03T13:57:46;24.10;99.90
18043;DHT22;9146;48.074;11.968;2022-09-03T14:00:22;24.30;99.90
18043;DHT22;9146;48.074;11.968;2022-09-03T14:02:53;24.40;99.90
18043;DHT22;9146;48.074;11.968;2022-09-03T14:05:37;24.50;99.90
18043;DHT22;9146;48.074;11.968;2022-09-03T14:08:14;24.50;99.90
18043;DHT22;9146;48.074;11.968;2022-09-03T14:10:58;24.30;99.90
18043;DHT22;9146;48.074;11.968;2022-09-03T14:13:39;24.00;99.90
18043;DHT22;9146;48.074;11.968;2022-09-03T14:16:23;23.80;99.90
18043;DHT22;9146;48.074;11.968;2022-09-03T14:18:55;23.60;99.90
18043;DHT22;9146;48.074;11.968;2022-09-03T14:21:26;23.60;99.90
18043;DHT22;9146;48.074;11.968;2022-09-03T14:24:03;23.60;99.90
18043;DHT22;9146;48.074;11.968;2022-09-03T14:26:32;23.50;99.90
18043;DHT22;9146;48.074;11.968;2022-09-03T14:29:03;23.50;99.90
18043;DHT22;9146;48.074;11.968;2022-09-03T14:34:40;23.40;99.90
18043;DHT22;9146;48.074;11.968;2022-09-03T14:37:27;23.30;99.90
18043;DHT22;9146;48.074;11.968;2022-09-03T14:40:00;23.20;99.90
18043;DHT22;9146;48.074;11.968;2022-09-03T14:42:53;23.00;99.90
18043;DHT22;9146;48.074;11.968;2022-09-03T14:48:39;22.50;99.90
18043;DHT22;9146;48.074;11.968;2022-09-03T14:51:19;22.30;99.90
18043;DHT22;9146;48.074;11.968;2022-09-03T14:54:17;22.10;99.90
18043;DHT22;9146;48.074;11.968;2022-09-03T14:57:02;21.90;99.90
18043;DHT22;9146;48.074;11.968;2022-09-03T15:05:56;21.50;99.90
18043;DHT22;9146;48.074;11.968;2022-09-03T15:08:42;21.30;99.90
18043;DHT22;9146;48.074;11.968;2022-09-03T15:11:15;21.00;99.90
18043;DHT22;9146;48.074;11.968;2022-09-03T15:13:49;20.20;99.90
18043;DHT22;9146;48.074;11.968;2022-09-03T15:16:30;19.10;99.90
18043;DHT22;9146;48.074;11.968;2022-09-03T15:19:11;17.60;99.90
18043;DHT22;9146;48.074;11.968;2022-09-03T15:21:48;16.30;99.90
18043;DHT22;9146;48.074;11.968;2022-09-03T15:24:25;15.40;99.90
18043;DHT22;9146;48.074;11.968;2022-09-03T15:27:09;14.80;99.90
18043;DHT22;9146;48.074;11.968;2022-09-03T15:29:51;14.50;99.90
18043;DHT22;9146;48.074;11.968;2022-09-03T15:32:29;14.30;99.90
18043;DHT22;9146;48.074;11.968;2022-09-03T15:35:07;14.20;99.90
18043;DHT22;9146;48.074;11.968;2022-09-03T15:37:41;14.10;99.90
18043;DHT22;9146;48.074;11.968;2022-09-03T15:40:22;14.20;99.90
18043;DHT22;9146;48.074;11.968;2022-09-03T15:42:56;14.20;99.90
18043;DHT22;9146;48.074;11.968;2022-09-03T15:45:33;14.30;99.90
18043;DHT22;9146;48.074;11.968;2022-09-03T15:48:18;14.30;99.90
18043;DHT22;9146;48.074;11.968;2022-09-03T15:50:54;14.40;99.90
18043;DHT22;9146;48.074;11.968;2022-09-03T15:53:35;14.50;99.90
18043;DHT22;9146;48.074;11.968;2022-09-03T15:56:26;14.50;99.90
18043;DHT22;9146;48.074;11.968;2022-09-03T15:59:01;14.60;99.90
18043;DHT22;9146;48.074;11.968;2022-09-03T16:01:38;14.60;99.90
18043;DHT22;9146;48.074;11.968;2022-09-03T16:04:32;14.60;99.90
18043;DHT22;9146;48.074;11.968;2022-09-03T16:07:08;14.60;99.90
18043;DHT22;9146;48.074;11.968;2022-09-03T16:09:50;14.60;99.90
18043;DHT22;9146;48.074;11.968;2022-09-03T16:12:28;14.60;99.90
18043;DHT22;9146;48.074;11.968;2022-09-03T16:14:59;14.60;99.90
18043;DHT22;9146;48.074;11.968;2022-09-03T16:17:34;14.60;99.90
18043;DHT22;9146;48.074;11.968;2022-09-03T16:20:07;14.60;99.90
18043;DHT22;9146;48.074;11.968;2022-09-03T16:22:42;14.50;99.90